sensor_id;sensor_type;location;lat;lon;timestamp;temperature;humidity
11229;DHT22;5671;47.936;8.716;2022-08-01T00:00:19;16.50;61.90
11229;DHT22;5671;47.936;8.716;2022-08-01T00:02:46;16.40;62.00
11229;DHT22;5671;47.936;8.716;2022-08-01T00:05:13;16.40;62.60
11229;DHT22;5671;47.936;8.716;2022-08-01T00:07:41;16.30;62.70
11229;DHT22;5671;47.936;8.716;2022-08-01T00:10:10;16.30;62.80
11229;DHT22;5671;47.936;8.716;2022-08-01T00:12:38;16.20;62.70
11229;DHT22;5671;47.936;8.716;2022-08-01T00:15:07;16.20;62.40
11229;DHT22;5671;47.936;8.716;2022-08-01T00:17:34;16.10;63.40
11229;DHT22;5671;47.936;8.716;2022-08-01T00:20:03;16.10;62.90
11229;DHT22;5671;47.936;8.716;2022-08-01T00:22:30;16.00;63.40
11229;DHT22;5671;47.936;8.716;2022-08-01T00:24:59;16.00;63.10
11229;DHT22;5671;47.936;8.716;2022-08-01T00:27:26;15.90;64.70
11229;DHT22;5671;47.936;8.716;2022-08-01T00:29:53;15.90;64.10
11229;DHT22;5671;47.936;8.716;2022-08-01T00:32:20;15.80;64.70
11229;DHT22;5671;47.936;8.716;2022-08-01T00:34:46;15.80;66.10
11229;DHT22;5671;47.936;8.716;2022-08-01T00:37:15;15.80;66.90
11229;DHT22;5671;47.936;8.716;2022-08-01T00:39:42;15.70;65.60
11229;DHT22;5671;47.936;8.716;2022-08-01T00:42:12;15.70;65.10
11229;DHT22;5671;47.936;8.716;2022-08-01T00:44:40;15.70;66.00
11229;DHT22;5671;47.936;8.716;2022-08-01T00:47:07;15.70;64.80
11229;DHT22;5671;47.936;8.716;2022-08-01T00:49:35;15.70;65.40
11229;DHT22;5671;47.936;8.716;2022-08-01T00:52:02;15.70;64.00
11229;DHT22;5671;47.936;8.716;2022-08-01T00:54:30;15.60;64.90
11229;DHT22;5671;47.936;8.716;2022-08-01T00:56:58;15.60;64.30
11229;DHT22;5671;47.936;8.716;2022-08-01T00:59:27;15.60;65.10
11229;DHT22;5671;47.936;8.716;2022-08-01T01:01:54;15.50;65.90
11229;DHT22;5671;47.936;8.716;2022-08-01T01:04:21;15.50;65.40
11229;DHT22;5671;47.936;8.716;2022-08-01T01:06:53;15.40;64.80
11229;DHT22;5671;47.936;8.716;2022-08-01T01:09:33;15.40;66.00
11229;DHT22;5671;47.936;8.716;2022-08-01T01:12:06;15.40;66.00
11229;DHT22;5671;47.936;8.716;2022-08-01T01:14:44;15.30;66.00
11229;DHT22;5671;47.936;8.716;2022-08-01T01:17:16;15.30;65.30
11229;DHT22;5671;47.936;8.716;2022-08-01T01:19:47;15.20;66.10
11229;DHT22;5671;47.936;8.716;2022-08-01T01:22:33;15.20;65.90
11229;DHT22;5671;47.936;8.716;2022-08-01T01:25:18;15.20;65.80
11229;DHT22;5671;47.936;8.716;2022-08-01T01:27:51;15.10;66.00
11229;DHT22;5671;47.936;8.716;2022-08-01T01:30:28;15.10;66.00
11229;DHT22;5671;47.936;8.716;2022-08-01T01:32:59;15.10;66.00
11229;DHT22;5671;47.936;8.716;2022-08-01T01:35:31;15.00;66.20
11229;DHT22;5671;47.936;8.716;2022-08-01T01:38:04;15.00;66.30
11229;DHT22;5671;47.936;8.716;2022-08-01T01:40:31;15.00;67.10
11229;DHT22;5671;47.936;8.716;2022-08-01T01:42:59;15.00;67.30
11229;DHT22;5671;47.936;8.716;2022-08-01T01:45:28;14.90;67.00
11229;DHT22;5671;47.936;8.716;2022-08-01T01:47:57;14.90;67.50
11229;DHT22;5671;47.936;8.716;2022-08-01T01:50:27;14.80;67.30
11229;DHT22;5671;47.936;8.716;2022-08-01T01:52:55;14.80;67.30
11229;DHT22;5671;47.936;8.716;2022-08-01T01:55:24;14.80;67.00
11229;DHT22;5671;47.936;8.716;2022-08-01T01:57:52;14.70;66.90
11229;DHT22;5671;47.936;8.716;2022-08-01T02:00:21;14.70;66.70
11229;DHT22;5671;47.936;8.716;2022-08-01T02:02:51;14.70;68.30
11229;DHT22;5671;47.936;8.716;2022-08-01T02:05:20;14.60;67.80
11229;DHT22;5671;47.936;8.716;2022-08-01T02:07:49;14.60;67.50
11229;DHT22;5671;47.936;8.716;2022-08-01T02:10:18;14.50;68.10
11229;DHT22;5671;47.936;8.716;2022-08-01T02:12:48;14.50;66.70
11229;DHT22;5671;47.936;8.716;2022-08-01T02:15:17;14.50;65.50
11229;DHT22;5671;47.936;8.716;2022-08-01T02:17:47;14.40;67.50
11229;DHT22;5671;47.936;8.716;2022-08-01T02:20:16;14.40;66.40
11229;DHT22;5671;47.936;8.716;2022-08-01T02:22:47;14.30;66.40
11229;DHT22;5671;47.936;8.716;2022-08-01T02:25:20;14.30;67.10
11229;DHT22;5671;47.936;8.716;2022-08-01T02:27:53;14.20;67.40
11229;DHT22;5671;47.936;8.716;2022-08-01T02:30:23;14.20;69.00
11229;DHT22;5671;47.936;8.716;2022-08-01T02:32:53;14.10;67.80
11229;DHT22;5671;47.936;8.716;2022-08-01T02:35:30;14.10;69.40
11229;DHT22;5671;47.936;8.716;2022-08-01T02:38:00;14.10;69.20
11229;DHT22;5671;47.936;8.716;2022-08-01T02:40:30;14.10;68.60
11229;DHT22;5671;47.936;8.716;2022-08-01T02:42:59;14.00;69.50
11229;DHT22;5671;47.936;8.716;2022-08-01T02:45:28;14.00;68.10
11229;DHT22;5671;47.936;8.716;2022-08-01T02:48:03;14.00;68.70
11229;DHT22;5671;47.936;8.716;2022-08-01T02:50:34;13.90;68.50
11229;DHT22;5671;47.936;8.716;2022-08-01T02:53:02;13.90;68.00
11229;DHT22;5671;47.936;8.716;2022-08-01T02:55:31;13.90;68.00
11229;DHT22;5671;47.936;8.716;2022-08-01T02:58:00;13.90;69.30
11229;DHT22;5671;47.936;8.716;2022-08-01T03:00:28;13.80;70.10
11229;DHT22;5671;47.936;8.716;2022-08-01T03:02:57;13.80;70.40
11229;DHT22;5671;47.936;8.716;2022-08-01T03:05:25;13.80;71.70
11229;DHT22;5671;47.936;8.716;2022-08-01T03:07:55;13.80;70.40
11229;DHT22;5671;47.936;8.716;2022-08-01T03:10:24;13.70;69.80
11229;DHT22;5671;47.936;8.716;2022-08-01T03:12:51;13.70;69.60
11229;DHT22;5671;47.936;8.716;2022-08-01T03:15:19;13.70;70.10
11229;DHT22;5671;47.936;8.716;2022-08-01T03:17:49;13.60;71.50
11229;DHT22;5671;47.936;8.716;2022-08-01T03:20:18;13.60;70.40
11229;DHT22;5671;47.936;8.716;2022-08-01T03:22:47;13.60;69.60
11229;DHT22;5671;47.936;8.716;2022-08-01T03:25:20;13.50;71.90
11229;DHT22;5671;47.936;8.716;2022-08-01T03:27:50;13.50;70.00
11229;DHT22;5671;47.936;8.716;2022-08-01T03:30:18;13.50;69.80
11229;DHT22;5671;47.936;8.716;2022-08-01T03:32:45;13.50;70.00
11229;DHT22;5671;47.936;8.716;2022-08-01T03:35:12;13.40;70.90
11229;DHT22;5671;47.936;8.716;2022-08-01T03:37:43;13.40;71.80
11229;DHT22;5671;47.936;8.716;2022-08-01T03:40:14;13.40;70.90
11229;DHT22;5671;47.936;8.716;2022-08-01T03:42:47;13.40;72.20
11229;DHT22;5671;47.936;8.716;2022-08-01T03:45:20;13.30;70.00
11229;DHT22;5671;47.936;8.716;2022-08-01T03:47:49;13.30;70.20
11229;DHT22;5671;47.936;8.716;2022-08-01T03:50:21;13.30;70.70
11229;DHT22;5671;47.936;8.716;2022-08-01T03:52:50;13.30;71.30
11229;DHT22;5671;47.936;8.716;2022-08-01T03:55:18;13.20;70.80
11229;DHT22;5671;47.936;8.716;2022-08-01T03:57:48;13.20;71.30
11229;DHT22;5671;47.936;8.716;2022-08-01T04:00:16;13.20;71.20
11229;DHT22;5671;47.936;8.716;2022-08-01T04:02:45;13.20;70.70
11229;DHT22;5671;47.936;8.716;2022-08-01T04:05:13;13.20;70.50
11229;DHT22;5671;47.936;8.716;2022-08-01T04:07:40;13.10;71.50
11229;DHT22;5671;47.936;8.716;2022-08-01T04:10:12;13.10;71.60
11229;DHT22;5671;47.936;8.716;2022-08-01T04:12:39;13.10;71.90
11229;DHT22;5671;47.936;8.716;2022-08-01T04:15:08;13.10;71.50
11229;DHT22;5671;47.936;8.716;2022-08-01T04:17:35;13.00;69.90
11229;DHT22;5671;47.936;8.716;2022-08-01T04:20:02;13.00;70.10
11229;DHT22;5671;47.936;8.716;2022-08-01T04:22:29;13.00;69.70
11229;DHT22;5671;47.936;8.716;2022-08-01T04:24:58;13.00;70.60
11229;DHT22;5671;47.936;8.716;2022-08-01T04:27:29;12.90;71.20
11229;DHT22;5671;47.936;8.716;2022-08-01T04:29:59;12.90;70.60
11229;DHT22;5671;47.936;8.716;2022-08-01T04:32:31;12.90;70.80
11229;DHT22;5671;47.936;8.716;2022-08-01T04:35:03;12.90;70.80
11229;DHT22;5671;47.936;8.716;2022-08-01T04:37:32;12.80;71.90
11229;DHT22;5671;47.936;8.716;2022-08-01T04:40:03;12.80;71.70
11229;DHT22;5671;47.936;8.716;2022-08-01T04:42:32;12.80;73.10
11229;DHT22;5671;47.936;8.716;2022-08-01T04:44:59;12.80;72.30
11229;DHT22;5671;47.936;8.716;2022-08-01T04:47:29;12.80;74.40
11229;DHT22;5671;47.936;8.716;2022-08-01T04:49:57;12.80;73.00
11229;DHT22;5671;47.936;8.716;2022-08-01T04:52:32;12.80;74.70
11229;DHT22;5671;47.936;8.716;2022-08-01T04:54:59;12.80;75.00
11229;DHT22;5671;47.936;8.716;2022-08-01T04:57:27;12.80;74.90
11229;DHT22;5671;47.936;8.716;2022-08-01T04:59:54;12.80;75.50
11229;DHT22;5671;47.936;8.716;2022-08-01T05:02:23;12.80;74.90
11229;DHT22;5671;47.936;8.716;2022-08-01T05:04:55;12.80;75.20
11229;DHT22;5671;47.936;8.716;2022-08-01T05:07:22;12.80;75.20
11229;DHT22;5671;47.936;8.716;2022-08-01T05:09:49;12.90;74.50
11229;DHT22;5671;47.936;8.716;2022-08-01T05:12:16;12.90;75.00
11229;DHT22;5671;47.936;8.716;2022-08-01T05:14:44;12.90;74.70
11229;DHT22;5671;47.936;8.716;2022-08-01T05:17:11;12.90;75.50
11229;DHT22;5671;47.936;8.716;2022-08-01T05:19:39;13.00;75.40
11229;DHT22;5671;47.936;8.716;2022-08-01T05:22:10;13.00;75.30
11229;DHT22;5671;47.936;8.716;2022-08-01T05:24:38;13.10;75.60
11229;DHT22;5671;47.936;8.716;2022-08-01T05:27:05;13.10;75.90
11229;DHT22;5671;47.936;8.716;2022-08-01T05:29:33;13.20;76.10
11229;DHT22;5671;47.936;8.716;2022-08-01T05:32:01;13.30;75.40
11229;DHT22;5671;47.936;8.716;2022-08-01T05:34:28;13.40;75.40
11229;DHT22;5671;47.936;8.716;2022-08-01T05:36:55;13.40;75.80
11229;DHT22;5671;47.936;8.716;2022-08-01T05:39:23;13.50;76.00
11229;DHT22;5671;47.936;8.716;2022-08-01T05:41:50;13.60;75.80
11229;DHT22;5671;47.936;8.716;2022-08-01T05:44:17;13.70;75.80
11229;DHT22;5671;47.936;8.716;2022-08-01T05:46:44;13.70;75.10
11229;DHT22;5671;47.936;8.716;2022-08-01T05:49:11;13.80;74.50
11229;DHT22;5671;47.936;8.716;2022-08-01T05:51:38;13.90;75.00
11229;DHT22;5671;47.936;8.716;2022-08-01T05:54:05;14.00;75.60
11229;DHT22;5671;47.936;8.716;2022-08-01T05:56:34;14.10;75.80
11229;DHT22;5671;47.936;8.716;2022-08-01T05:59:01;14.20;75.20
11229;DHT22;5671;47.936;8.716;2022-08-01T06:01:28;14.30;75.10
11229;DHT22;5671;47.936;8.716;2022-08-01T06:03:55;14.50;75.10
11229;DHT22;5671;47.936;8.716;2022-08-01T06:06:22;14.70;74.10
11229;DHT22;5671;47.936;8.716;2022-08-01T06:08:49;14.90;74.00
11229;DHT22;5671;47.936;8.716;2022-08-01T06:11:17;15.00;74.10
11229;DHT22;5671;47.936;8.716;2022-08-01T06:13:46;15.10;73.50
11229;DHT22;5671;47.936;8.716;2022-08-01T06:16:12;15.30;72.80
11229;DHT22;5671;47.936;8.716;2022-08-01T06:18:39;15.50;72.10
11229;DHT22;5671;47.936;8.716;2022-08-01T06:21:06;15.80;71.30
11229;DHT22;5671;47.936;8.716;2022-08-01T06:23:33;16.40;69.70
11229;DHT22;5671;47.936;8.716;2022-08-01T06:26:00;16.80;68.30
11229;DHT22;5671;47.936;8.716;2022-08-01T06:28:28;17.00;66.80
11229;DHT22;5671;47.936;8.716;2022-08-01T06:30:56;17.20;66.30
11229;DHT22;5671;47.936;8.716;2022-08-01T06:33:25;17.30;65.50
11229;DHT22;5671;47.936;8.716;2022-08-01T06:35:51;17.40;65.20
11229;DHT22;5671;47.936;8.716;2022-08-01T06:38:18;17.40;65.40
11229;DHT22;5671;47.936;8.716;2022-08-01T06:40:45;17.40;65.40
11229;DHT22;5671;47.936;8.716;2022-08-01T06:43:14;17.50;65.50
11229;DHT22;5671;47.936;8.716;2022-08-01T06:45:41;17.50;65.30
11229;DHT22;5671;47.936;8.716;2022-08-01T06:48:09;17.50;65.50
11229;DHT22;5671;47.936;8.716;2022-08-01T06:50:36;17.50;65.60
11229;DHT22;5671;47.936;8.716;2022-08-01T06:53:04;17.60;65.70
11229;DHT22;5671;47.936;8.716;2022-08-01T06:55:31;17.60;66.30
11229;DHT22;5671;47.936;8.716;2022-08-01T06:57:58;17.60;65.90
11229;DHT22;5671;47.936;8.716;2022-08-01T07:00:26;17.70;66.20
11229;DHT22;5671;47.936;8.716;2022-08-01T07:02:55;17.70;66.40
11229;DHT22;5671;47.936;8.716;2022-08-01T07:05:23;17.80;66.40
11229;DHT22;5671;47.936;8.716;2022-08-01T07:07:50;17.90;66.10
11229;DHT22;5671;47.936;8.716;2022-08-01T07:10:20;17.90;65.50
11229;DHT22;5671;47.936;8.716;2022-08-01T07:12:50;18.00;64.90
11229;DHT22;5671;47.936;8.716;2022-08-01T07:15:17;18.10;64.90
11229;DHT22;5671;47.936;8.716;2022-08-01T07:17:46;18.20;63.90
11229;DHT22;5671;47.936;8.716;2022-08-01T07:20:13;18.30;64.40
11229;DHT22;5671;47.936;8.716;2022-08-01T07:22:41;18.50;64.10
11229;DHT22;5671;47.936;8.716;2022-08-01T07:25:09;18.60;63.70
11229;DHT22;5671;47.936;8.716;2022-08-01T07:27:36;18.70;63.40
11229;DHT22;5671;47.936;8.716;2022-08-01T07:30:04;18.80;62.30
11229;DHT22;5671;47.936;8.716;2022-08-01T07:32:31;18.90;61.80
11229;DHT22;5671;47.936;8.716;2022-08-01T07:35:00;19.00;61.00
11229;DHT22;5671;47.936;8.716;2022-08-01T07:37:27;19.10;60.50
11229;DHT22;5671;47.936;8.716;2022-08-01T07:39:55;19.30;58.20
11229;DHT22;5671;47.936;8.716;2022-08-01T07:42:22;19.40;59.20
11229;DHT22;5671;47.936;8.716;2022-08-01T07:44:49;19.50;59.10
11229;DHT22;5671;47.936;8.716;2022-08-01T07:47:22;19.60;59.40
11229;DHT22;5671;47.936;8.716;2022-08-01T07:49:49;19.80;58.10
11229;DHT22;5671;47.936;8.716;2022-08-01T07:52:16;19.90;57.20
11229;DHT22;5671;47.936;8.716;2022-08-01T07:54:43;20.00;57.20
11229;DHT22;5671;47.936;8.716;2022-08-01T07:57:12;20.10;57.40
11229;DHT22;5671;47.936;8.716;2022-08-01T07:59:39;20.20;57.40
11229;DHT22;5671;47.936;8.716;2022-08-01T08:02:06;20.30;57.40
11229;DHT22;5671;47.936;8.716;2022-08-01T08:04:33;20.40;56.20
11229;DHT22;5671;47.936;8.716;2022-08-01T08:07:00;20.50;55.60
11229;DHT22;5671;47.936;8.716;2022-08-01T08:09:27;20.60;56.20
11229;DHT22;5671;47.936;8.716;2022-08-01T08:11:54;20.70;56.40
11229;DHT22;5671;47.936;8.716;2022-08-01T08:14:22;20.80;55.30
11229;DHT22;5671;47.936;8.716;2022-08-01T08:16:50;20.90;55.90
11229;DHT22;5671;47.936;8.716;2022-08-01T08:19:17;21.00;55.90
11229;DHT22;5671;47.936;8.716;2022-08-01T08:21:44;21.10;55.10
11229;DHT22;5671;47.936;8.716;2022-08-01T08:24:11;21.20;55.30
11229;DHT22;5671;47.936;8.716;2022-08-01T08:26:48;21.30;54.70
11229;DHT22;5671;47.936;8.716;2022-08-01T08:29:15;21.40;54.30
11229;DHT22;5671;47.936;8.716;2022-08-01T08:31:44;21.50;54.40
11229;DHT22;5671;47.936;8.716;2022-08-01T08:34:11;21.60;53.50
11229;DHT22;5671;47.936;8.716;2022-08-01T08:36:38;21.60;53.80
11229;DHT22;5671;47.936;8.716;2022-08-01T08:39:05;21.70;54.00
11229;DHT22;5671;47.936;8.716;2022-08-01T08:41:33;21.80;53.40
11229;DHT22;5671;47.936;8.716;2022-08-01T08:44:01;21.90;53.10
11229;DHT22;5671;47.936;8.716;2022-08-01T08:46:28;22.00;53.40
11229;DHT22;5671;47.936;8.716;2022-08-01T08:49:00;22.10;53.40
11229;DHT22;5671;47.936;8.716;2022-08-01T08:51:27;22.20;52.30
11229;DHT22;5671;47.936;8.716;2022-08-01T08:53:57;22.30;50.40
11229;DHT22;5671;47.936;8.716;2022-08-01T08:56:24;22.50;50.60
11229;DHT22;5671;47.936;8.716;2022-08-01T08:58:52;22.70;51.60
11229;DHT22;5671;47.936;8.716;2022-08-01T09:01:19;22.80;50.60
11229;DHT22;5671;47.936;8.716;2022-08-01T09:03:46;23.00;51.20
11229;DHT22;5671;47.936;8.716;2022-08-01T09:06:15;23.10;49.70
11229;DHT22;5671;47.936;8.716;2022-08-01T09:08:42;23.20;50.30
11229;DHT22;5671;47.936;8.716;2022-08-01T09:11:09;23.30;49.10
11229;DHT22;5671;47.936;8.716;2022-08-01T09:13:36;23.50;49.30
11229;DHT22;5671;47.936;8.716;2022-08-01T09:16:05;23.60;48.70
11229;DHT22;5671;47.936;8.716;2022-08-01T09:18:34;23.60;48.60
11229;DHT22;5671;47.936;8.716;2022-08-01T09:21:16;23.70;47.60
11229;DHT22;5671;47.936;8.716;2022-08-01T09:23:45;23.80;49.20
11229;DHT22;5671;47.936;8.716;2022-08-01T09:26:15;23.90;47.90
11229;DHT22;5671;47.936;8.716;2022-08-01T09:28:43;24.00;47.50
11229;DHT22;5671;47.936;8.716;2022-08-01T09:31:12;24.10;48.40
11229;DHT22;5671;47.936;8.716;2022-08-01T09:33:51;24.20;46.50
11229;DHT22;5671;47.936;8.716;2022-08-01T09:36:21;24.30;47.20
11229;DHT22;5671;47.936;8.716;2022-08-01T09:38:48;24.50;46.10
11229;DHT22;5671;47.936;8.716;2022-08-01T09:41:15;24.70;46.00
11229;DHT22;5671;47.936;8.716;2022-08-01T09:43:48;24.70;46.30
11229;DHT22;5671;47.936;8.716;2022-08-01T09:46:16;24.90;46.10
11229;DHT22;5671;47.936;8.716;2022-08-01T09:48:57;25.00;45.40
11229;DHT22;5671;47.936;8.716;2022-08-01T09:51:32;25.10;45.30
11229;DHT22;5671;47.936;8.716;2022-08-01T09:54:00;25.10;45.70
11229;DHT22;5671;47.936;8.716;2022-08-01T09:56:36;25.20;45.90
11229;DHT22;5671;47.936;8.716;2022-08-01T09:59:03;25.20;44.80
11229;DHT22;5671;47.936;8.716;2022-08-01T10:01:43;25.10;45.20
11229;DHT22;5671;47.936;8.716;2022-08-01T10:04:12;25.10;46.30
11229;DHT22;5671;47.936;8.716;2022-08-01T10:06:42;25.20;44.90
11229;DHT22;5671;47.936;8.716;2022-08-01T10:09:10;25.20;45.10
11229;DHT22;5671;47.936;8.716;2022-08-01T10:11:39;25.20;45.10
11229;DHT22;5671;47.936;8.716;2022-08-01T10:14:07;25.30;44.30
11229;DHT22;5671;47.936;8.716;2022-08-01T10:16:35;25.30;43.40
11229;DHT22;5671;47.936;8.716;2022-08-01T10:19:05;25.40;44.60
11229;DHT22;5671;47.936;8.716;2022-08-01T10:21:33;25.50;45.10
11229;DHT22;5671;47.936;8.716;2022-08-01T10:24:03;25.70;44.80
11229;DHT22;5671;47.936;8.716;2022-08-01T10:26:33;25.90;44.50
11229;DHT22;5671;47.936;8.716;2022-08-01T10:29:01;26.10;44.80
11229;DHT22;5671;47.936;8.716;2022-08-01T10:31:29;26.20;44.90
11229;DHT22;5671;47.936;8.716;2022-08-01T10:33:59;26.40;42.50
11229;DHT22;5671;47.936;8.716;2022-08-01T10:36:27;26.70;40.50
11229;DHT22;5671;47.936;8.716;2022-08-01T10:38:54;27.10;42.00
11229;DHT22;5671;47.936;8.716;2022-08-01T10:41:24;27.60;40.30
11229;DHT22;5671;47.936;8.716;2022-08-01T10:43:52;28.00;40.10
11229;DHT22;5671;47.936;8.716;2022-08-01T10:46:20;28.30;38.40
11229;DHT22;5671;47.936;8.716;2022-08-01T10:48:55;28.70;37.80
11229;DHT22;5671;47.936;8.716;2022-08-01T10:51:23;29.10;38.60
11229;DHT22;5671;47.936;8.716;2022-08-01T10:53:52;29.70;37.70
11229;DHT22;5671;47.936;8.716;2022-08-01T10:56:19;29.90;37.00
11229;DHT22;5671;47.936;8.716;2022-08-01T10:58:49;30.50;36.30
11229;DHT22;5671;47.936;8.716;2022-08-01T11:01:22;31.00;35.40
11229;DHT22;5671;47.936;8.716;2022-08-01T11:04:06;31.70;34.30
11229;DHT22;5671;47.936;8.716;2022-08-01T11:06:52;32.30;33.40
11229;DHT22;5671;47.936;8.716;2022-08-01T11:09:38;33.00;33.90
11229;DHT22;5671;47.936;8.716;2022-08-01T11:12:08;33.50;33.10
11229;DHT22;5671;47.936;8.716;2022-08-01T11:17:38;34.40;30.90
11229;DHT22;5671;47.936;8.716;2022-08-01T11:20:11;34.30;31.70
11229;DHT22;5671;47.936;8.716;2022-08-01T11:26:16;34.50;30.20
11229;DHT22;5671;47.936;8.716;2022-08-01T11:28:45;34.30;31.00
11229;DHT22;5671;47.936;8.716;2022-08-01T11:31:29;33.90;31.70
11229;DHT22;5671;47.936;8.716;2022-08-01T11:33:58;33.90;30.60
11229;DHT22;5671;47.936;8.716;2022-08-01T11:36:26;34.10;30.70
11229;DHT22;5671;47.936;8.716;2022-08-01T11:39:13;34.20;30.90
11229;DHT22;5671;47.936;8.716;2022-08-01T11:41:41;34.50;30.10
11229;DHT22;5671;47.936;8.716;2022-08-01T11:44:09;34.90;30.50
11229;DHT22;5671;47.936;8.716;2022-08-01T11:46:51;35.40;30.70
11229;DHT22;5671;47.936;8.716;2022-08-01T11:52:26;36.50;28.40
11229;DHT22;5671;47.936;8.716;2022-08-01T11:54:55;37.10;28.90
11229;DHT22;5671;47.936;8.716;2022-08-01T11:57:23;37.60;27.90
11229;DHT22;5671;47.936;8.716;2022-08-01T11:59:52;37.80;28.10
11229;DHT22;5671;47.936;8.716;2022-08-01T12:02:22;38.20;26.80
11229;DHT22;5671;47.936;8.716;2022-08-01T12:04:55;38.40;26.40
11229;DHT22;5671;47.936;8.716;2022-08-01T12:07:24;38.60;26.60
11229;DHT22;5671;47.936;8.716;2022-08-01T12:10:02;38.80;25.20
11229;DHT22;5671;47.936;8.716;2022-08-01T12:12:31;39.10;26.90
11229;DHT22;5671;47.936;8.716;2022-08-01T12:15:04;39.50;27.60
11229;DHT22;5671;47.936;8.716;2022-08-01T12:17:33;39.90;26.30
11229;DHT22;5671;47.936;8.716;2022-08-01T12:20:04;40.30;25.20
11229;DHT22;5671;47.936;8.716;2022-08-01T12:22:32;40.20;25.10
11229;DHT22;5671;47.936;8.716;2022-08-01T12:25:05;40.30;25.10
11229;DHT22;5671;47.936;8.716;2022-08-01T12:27:33;40.50;25.60
11229;DHT22;5671;47.936;8.716;2022-08-01T12:30:00;40.70;26.00
11229;DHT22;5671;47.936;8.716;2022-08-01T12:32:28;40.50;24.70
11229;DHT22;5671;47.936;8.716;2022-08-01T12:35:00;40.40;25.40
11229;DHT22;5671;47.936;8.716;2022-08-01T12:37:29;40.60;24.80
11229;DHT22;5671;47.936;8.716;2022-08-01T12:39:57;40.60;24.40
11229;DHT22;5671;47.936;8.716;2022-08-01T12:42:33;40.70;25.00
11229;DHT22;5671;47.936;8.716;2022-08-01T12:45:03;40.30;23.90
11229;DHT22;5671;47.936;8.716;2022-08-01T12:47:30;39.80;25.40
11229;DHT22;5671;47.936;8.716;2022-08-01T12:49:57;39.40;25.40
11229;DHT22;5671;47.936;8.716;2022-08-01T12:52:24;39.30;25.40
11229;DHT22;5671;47.936;8.716;2022-08-01T12:55:11;39.30;25.40
11229;DHT22;5671;47.936;8.716;2022-08-01T12:57:40;39.10;24.70
11229;DHT22;5671;47.936;8.716;2022-08-01T13:00:10;38.80;25.50
11229;DHT22;5671;47.936;8.716;2022-08-01T13:02:38;38.60;25.20
11229;DHT22;5671;47.936;8.716;2022-08-01T13:05:07;38.50;25.10
11229;DHT22;5671;47.936;8.716;2022-08-01T13:07:40;38.50;25.70
11229;DHT22;5671;47.936;8.716;2022-08-01T13:10:10;38.60;25.10
11229;DHT22;5671;47.936;8.716;2022-08-01T13:12:50;38.50;25.40
11229;DHT22;5671;47.936;8.716;2022-08-01T13:15:23;38.50;24.10
11229;DHT22;5671;47.936;8.716;2022-08-01T13:17:51;38.10;26.00
11229;DHT22;5671;47.936;8.716;2022-08-01T13:20:28;38.20;25.40
11229;DHT22;5671;47.936;8.716;2022-08-01T13:22:55;37.70;24.80
11229;DHT22;5671;47.936;8.716;2022-08-01T13:25:46;37.50;25.70
11229;DHT22;5671;47.936;8.716;2022-08-01T13:28:14;37.50;25.10
11229;DHT22;5671;47.936;8.716;2022-08-01T13:30:59;37.60;26.20
11229;DHT22;5671;47.936;8.716;2022-08-01T13:33:41;37.60;24.10
11229;DHT22;5671;47.936;8.716;2022-08-01T13:36:11;37.40;25.50
11229;DHT22;5671;47.936;8.716;2022-08-01T13:38:38;37.40;25.70
11229;DHT22;5671;47.936;8.716;2022-08-01T13:41:24;37.60;26.00
11229;DHT22;5671;47.936;8.716;2022-08-01T13:43:51;37.80;24.80
11229;DHT22;5671;47.936;8.716;2022-08-01T13:46:25;37.90;24.70
11229;DHT22;5671;47.936;8.716;2022-08-01T13:48:58;38.20;24.20
11229;DHT22;5671;47.936;8.716;2022-08-01T13:51:25;38.20;23.50
11229;DHT22;5671;47.936;8.716;2022-08-01T13:53:52;38.30;24.80
11229;DHT22;5671;47.936;8.716;2022-08-01T13:56:19;38.50;24.80
11229;DHT22;5671;47.936;8.716;2022-08-01T13:58:48;38.70;23.30
11229;DHT22;5671;47.936;8.716;2022-08-01T14:01:15;38.80;23.60
11229;DHT22;5671;47.936;8.716;2022-08-01T14:03:42;39.10;24.20
11229;DHT22;5671;47.936;8.716;2022-08-01T14:06:09;39.00;24.10
11229;DHT22;5671;47.936;8.716;2022-08-01T14:08:37;39.10;23.50
11229;DHT22;5671;47.936;8.716;2022-08-01T14:11:04;39.40;24.00
11229;DHT22;5671;47.936;8.716;2022-08-01T14:13:31;39.70;21.90
11229;DHT22;5671;47.936;8.716;2022-08-01T14:16:00;39.30;23.40
11229;DHT22;5671;47.936;8.716;2022-08-01T14:18:27;39.30;23.60
11229;DHT22;5671;47.936;8.716;2022-08-01T14:20:54;39.10;23.40
11229;DHT22;5671;47.936;8.716;2022-08-01T14:23:21;38.70;23.20
11229;DHT22;5671;47.936;8.716;2022-08-01T14:25:48;38.20;23.50
11229;DHT22;5671;47.936;8.716;2022-08-01T14:28:15;37.60;23.70
11229;DHT22;5671;47.936;8.716;2022-08-01T14:30:43;37.00;24.60
11229;DHT22;5671;47.936;8.716;2022-08-01T14:33:12;36.40;24.60
11229;DHT22;5671;47.936;8.716;2022-08-01T14:35:41;35.70;25.00
11229;DHT22;5671;47.936;8.716;2022-08-01T14:38:11;34.90;25.30
11229;DHT22;5671;47.936;8.716;2022-08-01T14:40:38;34.30;26.90
11229;DHT22;5671;47.936;8.716;2022-08-01T14:43:06;33.80;26.00
11229;DHT22;5671;47.936;8.716;2022-08-01T14:45:33;33.40;26.80
11229;DHT22;5671;47.936;8.716;2022-08-01T14:48:00;33.10;26.80
11229;DHT22;5671;47.936;8.716;2022-08-01T14:50:28;32.80;27.80
11229;DHT22;5671;47.936;8.716;2022-08-01T14:52:58;32.60;28.30
11229;DHT22;5671;47.936;8.716;2022-08-01T14:55:25;32.40;28.40
11229;DHT22;5671;47.936;8.716;2022-08-01T14:57:53;32.20;28.30
11229;DHT22;5671;47.936;8.716;2022-08-01T15:00:20;32.00;28.30
11229;DHT22;5671;47.936;8.716;2022-08-01T15:02:47;31.80;28.80
11229;DHT22;5671;47.936;8.716;2022-08-01T15:05:14;31.70;29.00
11229;DHT22;5671;47.936;8.716;2022-08-01T15:07:43;31.70;28.90
11229;DHT22;5671;47.936;8.716;2022-08-01T15:10:10;31.60;29.00
11229;DHT22;5671;47.936;8.716;2022-08-01T15:12:37;31.50;29.10
11229;DHT22;5671;47.936;8.716;2022-08-01T15:15:05;31.50;29.40
11229;DHT22;5671;47.936;8.716;2022-08-01T15:17:32;31.50;29.30
11229;DHT22;5671;47.936;8.716;2022-08-01T15:20:02;31.40;30.10
11229;DHT22;5671;47.936;8.716;2022-08-01T15:22:30;31.30;30.00
11229;DHT22;5671;47.936;8.716;2022-08-01T15:25:00;31.20;29.60
11229;DHT22;5671;47.936;8.716;2022-08-01T15:27:27;31.00;30.70
11229;DHT22;5671;47.936;8.716;2022-08-01T15:29:55;30.80;30.40
11229;DHT22;5671;47.936;8.716;2022-08-01T15:32:23;30.70;29.90
11229;DHT22;5671;47.936;8.716;2022-08-01T15:34:50;30.50;32.00
11229;DHT22;5671;47.936;8.716;2022-08-01T15:37:17;30.30;31.50
11229;DHT22;5671;47.936;8.716;2022-08-01T15:39:44;30.20;32.20
11229;DHT22;5671;47.936;8.716;2022-08-01T15:42:15;30.00;32.40
11229;DHT22;5671;47.936;8.716;2022-08-01T15:44:42;29.80;32.20
11229;DHT22;5671;47.936;8.716;2022-08-01T15:47:10;29.70;32.10
11229;DHT22;5671;47.936;8.716;2022-08-01T15:49:37;29.60;33.00
11229;DHT22;5671;47.936;8.716;2022-08-01T15:52:07;29.50;33.70
11229;DHT22;5671;47.936;8.716;2022-08-01T15:54:35;29.50;34.20
11229;DHT22;5671;47.936;8.716;2022-08-01T15:57:02;29.50;34.40
11229;DHT22;5671;47.936;8.716;2022-08-01T15:59:31;29.50;35.50
11229;DHT22;5671;47.936;8.716;2022-08-01T16:01:58;29.40;34.60
11229;DHT22;5671;47.936;8.716;2022-08-01T16:04:25;29.30;34.90
11229;DHT22;5671;47.936;8.716;2022-08-01T16:06:52;29.30;35.20